| time (UTC) | temp F | wind direction | speed knots | gust knots | rain 1hr in | rain 24hr in | rain mn in | humidity % | barometer mb |
| 20260906060016 | 72 | 0.0 | 0.0 | 0.00 | 0.15 | 0.00 | 92 | 1011.6 | |
| 20260906055016 | 72 | 0.0 | 0.9 | 0.00 | 0.15 | 0.00 | 92 | 1011.6 | |
| 20260906054016 | 72 | 0.0 | 0.0 | 0.00 | 0.15 | 0.00 | 91 | 1011.7 | |
| 20260906053016 | 72 | 0.0 | 0.0 | 0.00 | 0.15 | 0.00 | 91 | 1011.8 | |
| 20260906052016 | 72 | 0.0 | 0.0 | 0.00 | 0.15 | 0.00 | 91 | 1011.9 | |
| 20260906051016 | 72 | 0.0 | 0.0 | 0.00 | 0.15 | 0.00 | 91 | 1012.0 | |
| 20260906050016 | 72 | 0.0 | 0.0 | 0.00 | 0.15 | 0.00 | 90 | 1012.1 | |
| 20260906045016 | 73 | 0.0 | 0.0 | 0.00 | 0.15 | 0.00 | 90 | 1012.0 | |
| 20260906044016 | 73 | 0.0 | 0.9 | 0.00 | 0.15 | 0.00 | 91 | 1012.2 | |
| 20260906043016 | 73 | 0.0 | 0.0 | 0.00 | 0.15 | 0.00 | 90 | 1012.3 | |
| 20260906042016 | 73 | 0.0 | 0.0 | 0.00 | 0.15 | 0.00 | 90 | 1012.3 | |
| 20260906041016 | 73 | 0.0 | 0.0 | 0.00 | 0.15 | 0.00 | 89 | 1012.3 | |
| 20260906040016 | 73 | 0.0 | 0.0 | 0.00 | 0.15 | 0.15 | 89 | 1012.3 | |
| 20260906035017 | 73 | 0.0 | 0.9 | 0.00 | 0.15 | 0.15 | 89 | 1012.1 | |
| 20260906034017 | 73 | 0.0 | 0.0 | 0.00 | 0.15 | 0.15 | 89 | 1012.4 | |
| 20260906033017 | 73 | 0.0 | 0.0 | 0.00 | 0.15 | 0.15 | 89 | 1012.3 | |
| 20260906032017 | 73 | 0.0 | 0.0 | 0.00 | 0.15 | 0.15 | 88 | 1012.3 | |
| 20260906031017 | 74 | 0.0 | 0.0 | 0.00 | 0.15 | 0.15 | 88 | 1012.3 | |
| 20260906030017 | 74 | 0.0 | 0.0 | 0.00 | 0.15 | 0.15 | 88 | 1012.4 | |
| 20260906025017 | 74 | 0.0 | 0.0 | 0.00 | 0.15 | 0.15 | 87 | 1012.3 | |
| 20260906024017 | 74 | 0.0 | 0.0 | 0.00 | 0.15 | 0.15 | 87 | 1012.2 | |
| 20260906023017 | 74 | 0.0 | 0.0 | 0.00 | 0.15 | 0.15 | 86 | 1012.1 | |
| 20260906022017 | 75 | 0.0 | 0.0 | 0.00 | 0.15 | 0.15 | 86 | 1012.0 | |
| 20260906021017 | 75 | 0.0 | 0.0 | 0.00 | 0.15 | 0.15 | 85 | 1011.7 | |
| 20260906020017 | 75 | 0.0 | 0.0 | 0.00 | 0.15 | 0.15 | 85 | 1011.9 | |
| 20260906015017 | 75 | 0.0 | 0.0 | 0.00 | 0.15 | 0.15 | 84 | 1011.8 | |
| 20260906014017 | 75 | 0.0 | 0.0 | 0.00 | 0.15 | 0.15 | 85 | 1011.6 | |
| 20260906013017 | 76 | 0.0 | 0.0 | 0.00 | 0.15 | 0.15 | 85 | 1011.6 | |
| 20260906012017 | 76 | 0.0 | 0.0 | 0.00 | 0.15 | 0.15 | 84 | 1011.5 | |
| 20260906011017 | 76 | 0.0 | 0.0 | 0.00 | 0.15 | 0.15 | 84 | 1011.4 | |
| 20260906010017 | 77 | 0.0 | 0.0 | 0.00 | 0.15 | 0.15 | 83 | 1011.3 | |
| 20260906005017 | 77 | 0.0 | 0.0 | 0.00 | 0.15 | 0.15 | 82 | 1011.2 | |
| 20260906004017 | 77 | 0.0 | 0.0 | 0.00 | 0.15 | 0.15 | 81 | 1011.2 | |
| 20260906003017 | 78 | 0.0 | 0.0 | 0.00 | 0.15 | 0.15 | 80 | 1011.2 | |
| 20260906002017 | 78 | 0.0 | 0.0 | 0.00 | 0.15 | 0.15 | 80 | 1011.1 | |
| 20260906001016 | 78 | 0.0 | 0.0 | 0.00 | 0.15 | 0.15 | 79 | 1010.9 | |
| 20260906000016 | 79 | 0.0 | 0.0 | 0.00 | 0.15 | 0.15 | 79 | 1010.8 | |
| 20260905235016 | 79 | 0.0 | 0.0 | 0.00 | 0.15 | 0.15 | 78 | 1010.7 | |
| 20260905234016 | 80 | 0.0 | 0.9 | 0.00 | 0.15 | 0.15 | 79 | 1010.5 | |
| 20260905233016 | 80 | 0.0 | 0.0 | 0.00 | 0.15 | 0.15 | 74 | 1010.4 | |
| 20260905232016 | 80 | 0.0 | 0.0 | 0.00 | 0.15 | 0.15 | 74 | 1010.3 | |
| 20260905231017 | 80 | 0.0 | 0.9 | 0.00 | 0.15 | 0.15 | 74 | 1010.3 | |
| 20260905230016 | 80 | 338 | 0.9 | 2.6 | 0.00 | 0.15 | 0.15 | 75 | 1010.3 |
| 20260905225016 | 80 | 0.0 | 1.7 | 0.00 | 0.15 | 0.15 | 74 | 1010.3 | |
| 20260905224016 | 80 | 0.0 | 1.7 | 0.00 | 0.15 | 0.15 | 75 | 1010.3 | |
| 20260905223016 | 80 | 0.0 | 0.9 | 0.00 | 0.15 | 0.15 | 76 | 1010.2 | |
| 20260905222016 | 79 | 0.0 | 1.7 | 0.00 | 0.15 | 0.15 | 75 | 1010.0 | |
| 20260905221016 | 79 | 45 | 0.9 | 1.7 | 0.00 | 0.15 | 0.15 | 74 | 1010.2 |
| 20260905220016 | 78 | 0.0 | 1.7 | 0.00 | 0.15 | 0.15 | 76 | 1010.3 | |
| 20260905215016 | 78 | 23 | 0.9 | 4.3 | 0.00 | 0.15 | 0.15 | 75 | 1010.4 |
| 20260905214016 | 77 | 23 | 0.9 | 2.6 | 0.00 | 0.15 | 0.15 | 81 | 1010.5 |
| 20260905213016 | 76 | 23 | 0.9 | 2.6 | 0.00 | 0.15 | 0.15 | 81 | 1010.6 |
| 20260905212017 | 75 | 0.0 | 0.9 | 0.00 | 0.15 | 0.15 | 84 | 1010.8 | |
| 20260905211016 | 75 | 0.0 | 0.9 | 0.00 | 0.15 | 0.15 | 87 | 1010.9 | |
| 20260905210016 | 74 | 0.0 | 0.9 | 0.00 | 0.15 | 0.15 | 88 | 1011.0 | |
| 20260905205016 | 74 | 0.0 | 0.9 | 0.00 | 0.15 | 0.15 | 89 | 1011.1 | |
| 20260905204016 | 74 | 135 | 0.9 | 2.6 | 0.00 | 0.15 | 0.15 | 89 | 1011.1 |
| 20260905203016 | 75 | 135 | 0.9 | 2.6 | 0.00 | 0.15 | 0.15 | 89 | 1011.1 |
| 20260905202016 | 75 | 0.0 | 0.9 | 0.00 | 0.15 | 0.15 | 89 | 1011.2 | |
| 20260905201016 | 75 | 90 | 0.9 | 2.6 | 0.04 | 0.15 | 0.15 | 88 | 1010.8 |
| 20260905200016 | 76 | 23 | 0.9 | 2.6 | 0.15 | 0.15 | 0.15 | 88 | 1011.4 |
| 20260905195016 | 76 | 45 | 0.9 | 4.3 | 0.15 | 0.15 | 0.15 | 88 | 1011.6 |
| 20260905194016 | 76 | 45 | 0.9 | 1.7 | 0.15 | 0.15 | 0.15 | 86 | 1011.4 |
| 20260905193016 | 77 | 90 | 0.9 | 1.7 | 0.15 | 0.15 | 0.15 | 81 | 1010.5 |
| 20260905192016 | 80 | 23 | 1.7 | 3.5 | 0.15 | 0.15 | 0.15 | 74 | 1010.4 |
| 20260905191016 | 90 | 158 | 6.1 | 21.7 | 0.11 | 0.11 | 0.11 | 47 | 1010.3 |
| 20260905190016 | 98 | 23 | 0.9 | 3.5 | 0.00 | 0.00 | 0.00 | 48 | 1010.7 |
| 20260905185016 | 99 | 23 | 0.9 | 2.6 | 0.00 | 0.00 | 0.00 | 46 | 1010.8 |
| 20260905184016 | 99 | 45 | 0.9 | 3.5 | 0.00 | 0.00 | 0.00 | 49 | 1011.0 |
| 20260905183016 | 98 | 158 | 0.9 | 2.6 | 0.00 | 0.00 | 0.00 | 48 | 1010.9 |
| 20260905182016 | 98 | 23 | 0.9 | 4.3 | 0.00 | 0.00 | 0.00 | 49 | 1011.1 |
| 20260905181016 | 97 | 158 | 1.7 | 4.3 | 0.00 | 0.00 | 0.00 | 50 | 1011.4 |
| 20260905180016 | 97 | 90 | 0.9 | 4.3 | 0.00 | 0.00 | 0.00 | 51 | 1011.6 |
| 20260905175016 | 96 | 158 | 3.5 | 6.1 | 0.00 | 0.00 | 0.00 | 52 | 1011.9 |
| 20260905174016 | 97 | 158 | 1.7 | 4.3 | 0.00 | 0.00 | 0.00 | 52 | 1012.1 |
| 20260905173016 | 96 | 23 | 0.9 | 3.5 | 0.00 | 0.00 | 0.00 | 53 | 1012.3 |
| 20260905172016 | 97 | 135 | 2.6 | 5.2 | 0.00 | 0.00 | 0.00 | 50 | 1012.5 |
| 20260905171016 | 97 | 23 | 1.7 | 4.3 | 0.00 | 0.00 | 0.00 | 50 | 1012.7 |
| 20260905170016 | 97 | 158 | 0.9 | 4.3 | 0.00 | 0.00 | 0.00 | 53 | 1012.7 |
| 20260905165016 | 96 | 0 | 0.9 | 1.7 | 0.00 | 0.00 | 0.00 | 55 | 1013.0 |
| 20260905164016 | 96 | 158 | 1.7 | 4.3 | 0.00 | 0.00 | 0.00 | 54 | 1013.1 |
| 20260905163016 | 97 | 23 | 0.9 | 2.6 | 0.00 | 0.00 | 0.00 | 53 | 1013.2 |
| 20260905162016 | 96 | 135 | 0.9 | 1.7 | 0.00 | 0.00 | 0.00 | 55 | 1013.3 |
| 20260905161015 | 96 | 45 | 1.7 | 3.5 | 0.00 | 0.00 | 0.00 | 56 | 1013.4 |
| 20260905160016 | 96 | 113 | 0.9 | 1.7 | 0.00 | 0.00 | 0.00 | 58 | 1013.5 |
| 20260905155016 | 94 | 45 | 0.9 | 2.6 | 0.00 | 0.00 | 0.00 | 61 | 1013.5 |
| 20260905154016 | 94 | 158 | 1.7 | 5.2 | 0.00 | 0.00 | 0.00 | 64 | 1013.5 |
| 20260905153015 | 92 | 68 | 0.9 | 1.7 | 0.00 | 0.00 | 0.00 | 65 | 1013.5 |
| 20260905152015 | 92 | 158 | 1.7 | 4.3 | 0.00 | 0.00 | 0.00 | 66 | 1013.6 |
| 20260905151016 | 93 | 113 | 0.9 | 1.7 | 0.00 | 0.00 | 0.00 | 65 | 1013.7 |
| 20260905150016 | 92 | 90 | 0.9 | 2.6 | 0.00 | 0.00 | 0.00 | 65 | 1013.6 |
| 20260905145018 | 92 | 113 | 0.9 | 2.6 | 0.00 | 0.00 | 0.00 | 67 | 1013.6 |
| 20260905144018 | 91 | 90 | 0.9 | 2.6 | 0.00 | 0.00 | 0.00 | 67 | 1013.6 |
| 20260905143017 | 89 | 45 | 0.9 | 2.6 | 0.00 | 0.00 | 0.00 | 69 | 1013.6 |
| 20260905142017 | 88 | 158 | 0.9 | 2.6 | 0.00 | 0.00 | 0.00 | 72 | 1013.6 |
| 20260905141018 | 89 | 135 | 0.9 | 3.5 | 0.00 | 0.00 | 0.00 | 69 | 1013.6 |
| 20260905140017 | 88 | 0.0 | 1.7 | 0.00 | 0.00 | 0.00 | 72 | 1013.7 | |
| 20260905135017 | 87 | 45 | 0.9 | 1.7 | 0.00 | 0.00 | 0.00 | 73 | 1013.7 |
| 20260905134017 | 85 | 0.0 | 1.7 | 0.00 | 0.00 | 0.00 | 76 | 1013.7 | |
| 20260905133017 | 84 | 113 | 0.9 | 1.7 | 0.00 | 0.00 | 0.00 | 76 | 1013.8 |
| 20260905132017 | 83 | 158 | 0.9 | 3.5 | 0.00 | 0.00 | 0.00 | 76 | 1013.8 |
| 20260905131017 | 82 | 158 | 0.9 | 3.5 | 0.00 | 0.00 | 0.00 | 78 | 1013.8 |
| 20260905130017 | 83 | 158 | 0.9 | 3.5 | 0.00 | 0.00 | 0.00 | 78 | 1013.8 |
| 20260905125017 | 82 | 158 | 0.9 | 3.5 | 0.00 | 0.00 | 0.00 | 79 | 1013.9 |
| 20260905124017 | 81 | 0.0 | 0.9 | 0.00 | 0.00 | 0.00 | 80 | 1013.9 | |
| 20260905123017 | 80 | 0.0 | 0.9 | 0.00 | 0.00 | 0.00 | 82 | 1013.8 | |
| 20260905122017 | 79 | 0.0 | 1.7 | 0.00 | 0.00 | 0.00 | 83 | 1013.9 | |
| 20260905121017 | 78 | 0.0 | 0.9 | 0.00 | 0.00 | 0.00 | 86 | 1013.8 | |
| 20260905120017 | 76 | 0.0 | 0.0 | 0.00 | 0.00 | 0.00 | 88 | 1013.7 | |
| 20260905115017 | 75 | 0.0 | 0.0 | 0.00 | 0.00 | 0.00 | 88 | 1013.7 | |
| 20260905114017 | 75 | 0.0 | 0.0 | 0.00 | 0.00 | 0.00 | 89 | 1013.5 | |
| 20260905113017 | 75 | 0.0 | 0.0 | 0.00 | 0.00 | 0.00 | 89 | 1013.5 | |
| 20260905112017 | 75 | 0.0 | 0.0 | 0.00 | 0.00 | 0.00 | 88 | 1013.4 | |
| 20260905111017 | 75 | 0.0 | 0.0 | 0.00 | 0.00 | 0.00 | 88 | 1013.1 | |
| 20260905110017 | 75 | 0.0 | 0.0 | 0.00 | 0.00 | 0.00 | 88 | 1012.8 | |
| 20260905105017 | 75 | 0.0 | 0.0 | 0.00 | 0.00 | 0.00 | 88 | 1012.6 | |
| 20260905104017 | 75 | 0.0 | 0.0 | 0.00 | 0.00 | 0.00 | 87 | 1012.5 | |
| 20260905103017 | 75 | 0.0 | 0.0 | 0.00 | 0.00 | 0.00 | 87 | 1012.5 | |
| 20260905102017 | 76 | 0.0 | 0.0 | 0.00 | 0.00 | 0.00 | 87 | 1012.4 | |
| 20260905101017 | 76 | 0.0 | 0.9 | 0.00 | 0.00 | 0.00 | 86 | 1012.4 | |
| 20260905100017 | 76 | 0.0 | 0.9 | 0.00 | 0.00 | 0.00 | 86 | 1012.2 | |
| 20260905095017 | 76 | 0.0 | 0.9 | 0.00 | 0.00 | 0.00 | 86 | 1012.2 | |
| 20260905094017 | 76 | 0.0 | 0.9 | 0.00 | 0.00 | 0.00 | 86 | 1012.2 | |
| 20260905093017 | 76 | 0.0 | 0.9 | 0.00 | 0.00 | 0.00 | 85 | 1012.2 | |
| 20260905092017 | 76 | 0.0 | 0.0 | 0.00 | 0.00 | 0.00 | 85 | 1012.3 | |
| 20260905091017 | 76 | 0.0 | 0.0 | 0.00 | 0.00 | 0.00 | 85 | 1012.3 | |
| 20260905090017 | 77 | 0.0 | 0.0 | 0.00 | 0.00 | 0.00 | 85 | 1012.4 | |
| 20260905085017 | 77 | 0.0 | 0.0 | 0.00 | 0.00 | 0.00 | 85 | 1012.5 | |
| 20260905084017 | 77 | 0.0 | 0.0 | 0.00 | 0.00 | 0.00 | 85 | 1012.7 | |
| 20260905083017 | 77 | 0.0 | 0.0 | 0.00 | 0.00 | 0.00 | 85 | 1012.7 | |
| 20260905082017 | 77 | 0.0 | 0.0 | 0.00 | 0.00 | 0.00 | 85 | 1012.7 | |
| 20260905081017 | 77 | 0.0 | 0.0 | 0.00 | 0.00 | 0.00 | 85 | 1012.8 | |
| 20260905080017 | 77 | 0.0 | 0.0 | 0.00 | 0.00 | 0.00 | 85 | 1012.9 | |
| 20260905075017 | 77 | 0.0 | 0.0 | 0.00 | 0.00 | 0.00 | 85 | 1012.9 | |
| 20260905074017 | 78 | 0.0 | 0.0 | 0.00 | 0.00 | 0.00 | 85 | 1013.2 | |
| 20260905073017 | 78 | 0.0 | 0.0 | 0.00 | 0.00 | 0.00 | 85 | 1013.1 | |
| 20260905072017 | 78 | 0.0 | 0.0 | 0.00 | 0.00 | 0.00 | 84 | 1013.2 | |
| 20260905071016 | 78 | 0.0 | 0.0 | 0.00 | 0.00 | 0.00 | 85 | 1013.3 | |
| 20260905070017 | 78 | 0.0 | 0.0 | 0.00 | 0.00 | 0.00 | 84 | 1013.4 | |
| 20260905065017 | 78 | 0.0 | 0.9 | 0.00 | 0.00 | 0.00 | 85 | 1013.6 | |
| 20260905064017 | 78 | 0.0 | 0.0 | 0.00 | 0.00 | 0.00 | 83 | 1013.7 | |
| 20260905063016 | 79 | 0.0 | 0.9 | 0.00 | 0.00 | 0.00 | 83 | 1013.7 | |
| 20260905062017 | 79 | 0.0 | 0.9 | 0.00 | 0.00 | 0.00 | 82 | 1013.6 | |
| 20260905061017 | 79 | 0.0 | 1.7 | 0.00 | 0.00 | 0.00 | 82 | 1014.0 |